sensor_id;sensor_type;location;lat;lon;timestamp;P1;durP1;ratioP1;P2;durP2;ratioP2
15516;SDS011;7860;52.030;5.572;2023-07-30T00:04:26;8.39;;;2.87;;
15516;SDS011;7860;52.030;5.572;2023-07-30T00:04:26;9.30;;;2.89;;
15516;SDS011;7860;52.030;5.572;2023-07-30T00:04:26;6.97;;;2.67;;
15516;SDS011;7860;52.030;5.572;2023-07-30T00:04:56;8.67;;;2.76;;
15516;SDS011;7860;52.030;5.572;2023-07-30T00:05:56;8.78;;;2.82;;
15516;SDS011;7860;52.030;5.572;2023-07-30T00:06:56;12.45;;;2.94;;
15516;SDS011;7860;52.030;5.572;2023-07-30T00:07:56;8.22;;;2.78;;
15516;SDS011;7860;52.030;5.572;2023-07-30T00:08:56;8.65;;;2.84;;
15516;SDS011;7860;52.030;5.572;2023-07-30T00:09:56;8.43;;;2.60;;
15516;SDS011;7860;52.030;5.572;2023-07-30T00:10:56;7.76;;;3.24;;
15516;SDS011;7860;52.030;5.572;2023-07-30T00:11:56;8.70;;;2.72;;
15516;SDS011;7860;52.030;5.572;2023-07-30T00:12:56;8.71;;;2.76;;
15516;SDS011;7860;52.030;5.572;2023-07-30T00:13:56;10.91;;;2.96;;
15516;SDS011;7860;52.030;5.572;2023-07-30T00:14:56;8.41;;;2.82;;
15516;SDS011;7860;52.030;5.572;2023-07-30T00:15:56;7.82;;;2.86;;
15516;SDS011;7860;52.030;5.572;2023-07-30T00:16:56;7.80;;;2.55;;
15516;SDS011;7860;52.030;5.572;2023-07-30T00:17:56;7.28;;;2.75;;
15516;SDS011;7860;52.030;5.572;2023-07-30T00:18:56;8.66;;;2.64;;
15516;SDS011;7860;52.030;5.572;2023-07-30T00:19:56;7.15;;;2.51;;
15516;SDS011;7860;52.030;5.572;2023-07-30T00:20:57;8.69;;;2.63;;
15516;SDS011;7860;52.030;5.572;2023-07-30T00:21:57;8.62;;;2.36;;
15516;SDS011;7860;52.030;5.572;2023-07-30T00:22:57;7.67;;;2.53;;
15516;SDS011;7860;52.030;5.572;2023-07-30T00:23:57;11.52;;;2.71;;
15516;SDS011;7860;52.030;5.572;2023-07-30T00:24:57;8.06;;;2.55;;
15516;SDS011;7860;52.030;5.572;2023-07-30T00:25:57;8.61;;;3.06;;
15516;SDS011;7860;52.030;5.572;2023-07-30T00:26:57;9.09;;;2.77;;
15516;SDS011;7860;52.030;5.572;2023-07-30T00:27:57;8.00;;;2.62;;
15516;SDS011;7860;52.030;5.572;2023-07-30T00:28:57;6.47;;;2.50;;
15516;SDS011;7860;52.030;5.572;2023-07-30T00:29:57;10.41;;;2.68;;
15516;SDS011;7860;52.030;5.572;2023-07-30T00:30:57;10.12;;;2.87;;
15516;SDS011;7860;52.030;5.572;2023-07-30T00:31:57;9.35;;;2.56;;
15516;SDS011;7860;52.030;5.572;2023-07-30T00:32:57;6.72;;;2.34;;
15516;SDS011;7860;52.030;5.572;2023-07-30T00:33:57;10.80;;;2.64;;
15516;SDS011;7860;52.030;5.572;2023-07-30T00:34:57;7.55;;;2.63;;
15516;SDS011;7860;52.030;5.572;2023-07-30T00:35:57;9.06;;;2.60;;
15516;SDS011;7860;52.030;5.572;2023-07-30T00:36:58;9.04;;;2.55;;
15516;SDS011;7860;52.030;5.572;2023-07-30T00:37:58;9.38;;;2.60;;
15516;SDS011;7860;52.030;5.572;2023-07-30T00:38:58;8.12;;;2.70;;
15516;SDS011;7860;52.030;5.572;2023-07-30T00:39:59;10.16;;;2.73;;
15516;SDS011;7860;52.030;5.572;2023-07-30T00:40:59;9.76;;;2.52;;
15516;SDS011;7860;52.030;5.572;2023-07-30T00:41:59;7.55;;;2.56;;
15516;SDS011;7860;52.030;5.572;2023-07-30T00:42:59;7.09;;;2.61;;
15516;SDS011;7860;52.030;5.572;2023-07-30T00:43:59;8.89;;;2.32;;
15516;SDS011;7860;52.030;5.572;2023-07-30T00:44:59;6.43;;;2.43;;
15516;SDS011;7860;52.030;5.572;2023-07-30T00:45:59;10.69;;;2.61;;
15516;SDS011;7860;52.030;5.572;2023-07-30T00:46:59;9.53;;;2.36;;
15516;SDS011;7860;52.030;5.572;2023-07-30T00:47:59;7.71;;;2.58;;
15516;SDS011;7860;52.030;5.572;2023-07-30T00:48:59;7.53;;;2.49;;
15516;SDS011;7860;52.030;5.572;2023-07-30T00:49:59;7.98;;;2.35;;
15516;SDS011;7860;52.030;5.572;2023-07-30T00:50:59;7.76;;;2.46;;
15516;SDS011;7860;52.030;5.572;2023-07-30T00:51:59;8.57;;;2.47;;
15516;SDS011;7860;52.030;5.572;2023-07-30T00:52:59;8.16;;;2.68;;
15516;SDS011;7860;52.030;5.572;2023-07-30T00:53:59;8.32;;;2.64;;
15516;SDS011;7860;52.030;5.572;2023-07-30T00:54:59;8.21;;;2.53;;
15516;SDS011;7860;52.030;5.572;2023-07-30T00:56:00;7.92;;;2.56;;
15516;SDS011;7860;52.030;5.572;2023-07-30T00:57:00;8.08;;;2.66;;
15516;SDS011;7860;52.030;5.572;2023-07-30T00:58:00;8.91;;;2.84;;
15516;SDS011;7860;52.030;5.572;2023-07-30T00:59:00;8.71;;;2.44;;
15516;SDS011;7860;52.030;5.572;2023-07-30T01:00:01;8.41;;;2.49;;
15516;SDS011;7860;52.030;5.572;2023-07-30T01:01:00;8.39;;;2.78;;
15516;SDS011;7860;52.030;5.572;2023-07-30T01:02:00;8.27;;;2.61;;
15516;SDS011;7860;52.030;5.572;2023-07-30T01:03:00;11.60;;;2.64;;
15516;SDS011;7860;52.030;5.572;2023-07-30T01:04:00;8.41;;;2.67;;
15516;SDS011;7860;52.030;5.572;2023-07-30T01:05:00;10.84;;;2.83;;
15516;SDS011;7860;52.030;5.572;2023-07-30T01:06:00;8.45;;;2.67;;
15516;SDS011;7860;52.030;5.572;2023-07-30T01:07:00;11.23;;;2.77;;
15516;SDS011;7860;52.030;5.572;2023-07-30T01:08:00;8.46;;;2.55;;
15516;SDS011;7860;52.030;5.572;2023-07-30T01:09:00;9.50;;;2.72;;
15516;SDS011;7860;52.030;5.572;2023-07-30T01:10:01;8.15;;;2.51;;
15516;SDS011;7860;52.030;5.572;2023-07-30T01:11:01;8.14;;;2.31;;
15516;SDS011;7860;52.030;5.572;2023-07-30T01:12:02;8.72;;;2.49;;
15516;SDS011;7860;52.030;5.572;2023-07-30T01:13:02;8.87;;;2.48;;
15516;SDS011;7860;52.030;5.572;2023-07-30T01:14:02;8.63;;;2.44;;
15516;SDS011;7860;52.030;5.572;2023-07-30T01:15:03;7.71;;;2.95;;
15516;SDS011;7860;52.030;5.572;2023-07-30T01:16:02;9.73;;;2.57;;
15516;SDS011;7860;52.030;5.572;2023-07-30T01:17:02;8.33;;;2.44;;
15516;SDS011;7860;52.030;5.572;2023-07-30T01:18:02;9.06;;;2.62;;
15516;SDS011;7860;52.030;5.572;2023-07-30T01:19:02;10.59;;;2.80;;
15516;SDS011;7860;52.030;5.572;2023-07-30T01:20:02;9.05;;;2.42;;
15516;SDS011;7860;52.030;5.572;2023-07-30T01:21:02;6.31;;;2.27;;
15516;SDS011;7860;52.030;5.572;2023-07-30T01:22:02;7.47;;;2.69;;
15516;SDS011;7860;52.030;5.572;2023-07-30T01:23:02;7.76;;;2.35;;
15516;SDS011;7860;52.030;5.572;2023-07-30T01:24:02;8.98;;;2.44;;
15516;SDS011;7860;52.030;5.572;2023-07-30T01:25:03;10.81;;;2.80;;
15516;SDS011;7860;52.030;5.572;2023-07-30T01:26:04;8.88;;;2.57;;
15516;SDS011;7860;52.030;5.572;2023-07-30T01:27:04;9.39;;;2.38;;
15516;SDS011;7860;52.030;5.572;2023-07-30T01:28:02;7.71;;;2.72;;
15516;SDS011;7860;52.030;5.572;2023-07-30T01:29:03;12.26;;;2.60;;
15516;SDS011;7860;52.030;5.572;2023-07-30T01:30:03;7.47;;;2.41;;
15516;SDS011;7860;52.030;5.572;2023-07-30T01:31:02;9.14;;;2.63;;
15516;SDS011;7860;52.030;5.572;2023-07-30T01:32:04;10.09;;;2.88;;
15516;SDS011;7860;52.030;5.572;2023-07-30T01:33:03;11.37;;;2.76;;
15516;SDS011;7860;52.030;5.572;2023-07-30T01:34:03;9.52;;;2.45;;
15516;SDS011;7860;52.030;5.572;2023-07-30T01:35:03;10.73;;;2.46;;
15516;SDS011;7860;52.030;5.572;2023-07-30T01:36:03;8.82;;;2.53;;
15516;SDS011;7860;52.030;5.572;2023-07-30T01:37:04;7.90;;;2.49;;
15516;SDS011;7860;52.030;5.572;2023-07-30T01:38:03;9.31;;;2.66;;
15516;SDS011;7860;52.030;5.572;2023-07-30T01:39:03;9.37;;;2.67;;
15516;SDS011;7860;52.030;5.572;2023-07-30T01:40:03;11.23;;;3.10;;
15516;SDS011;7860;52.030;5.572;2023-07-30T01:41:03;7.39;;;2.61;;
15516;SDS011;7860;52.030;5.572;2023-07-30T01:42:03;9.87;;;2.60;;
15516;SDS011;7860;52.030;5.572;2023-07-30T01:43:03;9.85;;;2.55;;
15516;SDS011;7860;52.030;5.572;2023-07-30T01:44:03;8.66;;;2.48;;
15516;SDS011;7860;52.030;5.572;2023-07-30T01:45:04;7.56;;;2.93;;
15516;SDS011;7860;52.030;5.572;2023-07-30T01:46:03;11.04;;;2.54;;
15516;SDS011;7860;52.030;5.572;2023-07-30T01:47:03;10.50;;;2.43;;
15516;SDS011;7860;52.030;5.572;2023-07-30T01:48:04;6.98;;;2.45;;
15516;SDS011;7860;52.030;5.572;2023-07-30T01:49:04;8.79;;;2.53;;
15516;SDS011;7860;52.030;5.572;2023-07-30T01:50:04;10.46;;;2.61;;
15516;SDS011;7860;52.030;5.572;2023-07-30T01:51:04;9.65;;;2.43;;
15516;SDS011;7860;52.030;5.572;2023-07-30T01:52:04;11.15;;;2.60;;
15516;SDS011;7860;52.030;5.572;2023-07-30T01:53:04;9.48;;;2.45;;
15516;SDS011;7860;52.030;5.572;2023-07-30T01:54:04;9.16;;;2.67;;
15516;SDS011;7860;52.030;5.572;2023-07-30T01:55:04;9.42;;;2.53;;
15516;SDS011;7860;52.030;5.572;2023-07-30T01:56:04;8.82;;;2.63;;
15516;SDS011;7860;52.030;5.572;2023-07-30T01:57:04;10.32;;;2.74;;
15516;SDS011;7860;52.030;5.572;2023-07-30T01:58:04;10.15;;;3.04;;
15516;SDS011;7860;52.030;5.572;2023-07-30T01:59:04;8.35;;;2.82;;
15516;SDS011;7860;52.030;5.572;2023-07-30T02:00:05;7.89;;;2.87;;
15516;SDS011;7860;52.030;5.572;2023-07-30T02:01:04;8.36;;;2.40;;
15516;SDS011;7860;52.030;5.572;2023-07-30T02:02:04;10.78;;;2.68;;
15516;SDS011;7860;52.030;5.572;2023-07-30T02:03:04;7.99;;;3.06;;
15516;SDS011;7860;52.030;5.572;2023-07-30T02:04:04;10.17;;;2.80;;
15516;SDS011;7860;52.030;5.572;2023-07-30T02:05:05;9.87;;;2.59;;
15516;SDS011;7860;52.030;5.572;2023-07-30T02:06:05;10.34;;;2.64;;
15516;SDS011;7860;52.030;5.572;2023-07-30T02:07:05;11.15;;;2.81;;
15516;SDS011;7860;52.030;5.572;2023-07-30T02:08:05;10.13;;;2.74;;
15516;SDS011;7860;52.030;5.572;2023-07-30T02:09:05;9.80;;;2.73;;
15516;SDS011;7860;52.030;5.572;2023-07-30T02:10:05;10.44;;;2.88;;
15516;SDS011;7860;52.030;5.572;2023-07-30T02:11:05;12.07;;;2.91;;
15516;SDS011;7860;52.030;5.572;2023-07-30T02:12:05;10.27;;;2.94;;
15516;SDS011;7860;52.030;5.572;2023-07-30T02:13:05;9.46;;;2.58;;
15516;SDS011;7860;52.030;5.572;2023-07-30T02:14:05;14.31;;;3.13;;
15516;SDS011;7860;52.030;5.572;2023-07-30T02:15:06;11.28;;;2.99;;
15516;SDS011;7860;52.030;5.572;2023-07-30T02:16:05;9.23;;;2.72;;
15516;SDS011;7860;52.030;5.572;2023-07-30T02:17:05;10.66;;;2.86;;
15516;SDS011;7860;52.030;5.572;2023-07-30T02:18:05;9.31;;;3.00;;
15516;SDS011;7860;52.030;5.572;2023-07-30T02:19:05;11.00;;;2.84;;
15516;SDS011;7860;52.030;5.572;2023-07-30T02:20:06;10.47;;;2.95;;
15516;SDS011;7860;52.030;5.572;2023-07-30T02:21:05;12.76;;;3.18;;
15516;SDS011;7860;52.030;5.572;2023-07-30T02:22:05;9.96;;;3.01;;
15516;SDS011;7860;52.030;5.572;2023-07-30T02:23:05;12.94;;;2.83;;
15516;SDS011;7860;52.030;5.572;2023-07-30T02:24:06;8.69;;;3.00;;
15516;SDS011;7860;52.030;5.572;2023-07-30T02:25:06;10.05;;;2.76;;
15516;SDS011;7860;52.030;5.572;2023-07-30T02:26:06;10.58;;;2.75;;
15516;SDS011;7860;52.030;5.572;2023-07-30T02:27:06;9.61;;;2.65;;
15516;SDS011;7860;52.030;5.572;2023-07-30T02:28:06;11.20;;;3.05;;
15516;SDS011;7860;52.030;5.572;2023-07-30T02:29:06;11.85;;;3.16;;
15516;SDS011;7860;52.030;5.572;2023-07-30T02:30:06;11.08;;;2.73;;
15516;SDS011;7860;52.030;5.572;2023-07-30T02:31:06;10.34;;;2.88;;
15516;SDS011;7860;52.030;5.572;2023-07-30T02:32:06;11.26;;;2.93;;
15516;SDS011;7860;52.030;5.572;2023-07-30T02:33:06;15.48;;;3.12;;
15516;SDS011;7860;52.030;5.572;2023-07-30T02:34:06;10.90;;;3.02;;
15516;SDS011;7860;52.030;5.572;2023-07-30T02:35:06;11.37;;;2.86;;
15516;SDS011;7860;52.030;5.572;2023-07-30T02:36:06;12.01;;;2.97;;
15516;SDS011;7860;52.030;5.572;2023-07-30T02:37:06;8.88;;;2.95;;
15516;SDS011;7860;52.030;5.572;2023-07-30T02:38:06;10.92;;;3.05;;
15516;SDS011;7860;52.030;5.572;2023-07-30T02:39:06;10.58;;;3.66;;
15516;SDS011;7860;52.030;5.572;2023-07-30T02:40:07;12.68;;;2.99;;
15516;SDS011;7860;52.030;5.572;2023-07-30T02:41:07;12.62;;;3.06;;
15516;SDS011;7860;52.030;5.572;2023-07-30T02:42:07;11.73;;;3.27;;
15516;SDS011;7860;52.030;5.572;2023-07-30T02:43:07;13.44;;;3.20;;
15516;SDS011;7860;52.030;5.572;2023-07-30T02:44:07;13.29;;;3.44;;
15516;SDS011;7860;52.030;5.572;2023-07-30T02:45:07;11.24;;;2.93;;
15516;SDS011;7860;52.030;5.572;2023-07-30T02:46:07;10.09;;;3.03;;
15516;SDS011;7860;52.030;5.572;2023-07-30T02:47:07;11.65;;;3.23;;
15516;SDS011;7860;52.030;5.572;2023-07-30T02:48:07;11.07;;;3.42;;
15516;SDS011;7860;52.030;5.572;2023-07-30T02:49:07;14.31;;;3.44;;
15516;SDS011;7860;52.030;5.572;2023-07-30T02:50:07;14.63;;;3.59;;
15516;SDS011;7860;52.030;5.572;2023-07-30T02:51:07;15.61;;;3.80;;
15516;SDS011;7860;52.030;5.572;2023-07-30T02:52:07;13.00;;;3.52;;
15516;SDS011;7860;52.030;5.572;2023-07-30T02:53:07;15.69;;;3.64;;
15516;SDS011;7860;52.030;5.572;2023-07-30T02:54:08;12.76;;;3.51;;
15516;SDS011;7860;52.030;5.572;2023-07-30T02:55:08;13.48;;;3.58;;
15516;SDS011;7860;52.030;5.572;2023-07-30T02:56:07;13.44;;;3.60;;
15516;SDS011;7860;52.030;5.572;2023-07-30T02:57:07;11.85;;;3.57;;
15516;SDS011;7860;52.030;5.572;2023-07-30T02:58:07;12.07;;;3.49;;
15516;SDS011;7860;52.030;5.572;2023-07-30T02:59:08;12.90;;;3.55;;
15516;SDS011;7860;52.030;5.572;2023-07-30T03:00:08;13.38;;;3.91;;
15516;SDS011;7860;52.030;5.572;2023-07-30T03:01:08;13.01;;;3.46;;
15516;SDS011;7860;52.030;5.572;2023-07-30T03:02:08;12.66;;;3.58;;
15516;SDS011;7860;52.030;5.572;2023-07-30T03:03:08;17.24;;;3.54;;
15516;SDS011;7860;52.030;5.572;2023-07-30T03:04:08;13.26;;;3.93;;
15516;SDS011;7860;52.030;5.572;2023-07-30T03:05:08;13.78;;;3.66;;
15516;SDS011;7860;52.030;5.572;2023-07-30T03:06:08;14.54;;;3.58;;
15516;SDS011;7860;52.030;5.572;2023-07-30T03:07:08;14.04;;;3.63;;
15516;SDS011;7860;52.030;5.572;2023-07-30T03:08:08;14.03;;;3.55;;
15516;SDS011;7860;52.030;5.572;2023-07-30T03:09:08;14.62;;;3.49;;
15516;SDS011;7860;52.030;5.572;2023-07-30T03:10:09;11.15;;;3.77;;
15516;SDS011;7860;52.030;5.572;2023-07-30T03:11:08;12.16;;;3.68;;
15516;SDS011;7860;52.030;5.572;2023-07-30T03:12:08;19.02;;;3.82;;
15516;SDS011;7860;52.030;5.572;2023-07-30T03:13:08;12.42;;;3.36;;
15516;SDS011;7860;52.030;5.572;2023-07-30T03:14:08;15.50;;;3.93;;
15516;SDS011;7860;52.030;5.572;2023-07-30T03:15:09;15.69;;;3.61;;
15516;SDS011;7860;52.030;5.572;2023-07-30T03:16:09;13.86;;;3.94;;
15516;SDS011;7860;52.030;5.572;2023-07-30T03:17:09;16.17;;;3.64;;
15516;SDS011;7860;52.030;5.572;2023-07-30T03:18:09;14.85;;;4.21;;
15516;SDS011;7860;52.030;5.572;2023-07-30T03:19:09;16.18;;;4.41;;
15516;SDS011;7860;52.030;5.572;2023-07-30T03:20:09;14.94;;;4.35;;
15516;SDS011;7860;52.030;5.572;2023-07-30T03:21:09;12.56;;;3.99;;
15516;SDS011;7860;52.030;5.572;2023-07-30T03:22:09;15.87;;;4.47;;
15516;SDS011;7860;52.030;5.572;2023-07-30T03:23:09;12.32;;;3.75;;
15516;SDS011;7860;52.030;5.572;2023-07-30T03:24:09;16.21;;;4.41;;
15516;SDS011;7860;52.030;5.572;2023-07-30T03:25:09;13.37;;;4.20;;
15516;SDS011;7860;52.030;5.572;2023-07-30T03:26:09;15.20;;;4.15;;
15516;SDS011;7860;52.030;5.572;2023-07-30T03:27:09;15.94;;;4.45;;
15516;SDS011;7860;52.030;5.572;2023-07-30T03:28:09;17.12;;;4.03;;
15516;SDS011;7860;52.030;5.572;2023-07-30T03:29:09;14.18;;;4.01;;
15516;SDS011;7860;52.030;5.572;2023-07-30T03:30:10;13.22;;;4.09;;
15516;SDS011;7860;52.030;5.572;2023-07-30T03:31:09;18.36;;;4.42;;
15516;SDS011;7860;52.030;5.572;2023-07-30T03:32:09;15.22;;;4.45;;
15516;SDS011;7860;52.030;5.572;2023-07-30T03:33:09;15.20;;;4.36;;
15516;SDS011;7860;52.030;5.572;2023-07-30T03:34:09;17.04;;;4.74;;
15516;SDS011;7860;52.030;5.572;2023-07-30T03:35:10;13.45;;;4.52;;
15516;SDS011;7860;52.030;5.572;2023-07-30T03:36:10;14.62;;;4.03;;
15516;SDS011;7860;52.030;5.572;2023-07-30T03:37:10;19.26;;;4.91;;
15516;SDS011;7860;52.030;5.572;2023-07-30T03:38:10;17.85;;;4.99;;
15516;SDS011;7860;52.030;5.572;2023-07-30T03:39:10;17.00;;;4.78;;
15516;SDS011;7860;52.030;5.572;2023-07-30T03:40:10;15.78;;;5.18;;
15516;SDS011;7860;52.030;5.572;2023-07-30T03:41:10;17.48;;;4.78;;
15516;SDS011;7860;52.030;5.572;2023-07-30T03:42:10;18.35;;;4.81;;
15516;SDS011;7860;52.030;5.572;2023-07-30T03:43:10;17.86;;;4.95;;
15516;SDS011;7860;52.030;5.572;2023-07-30T03:44:10;14.72;;;4.25;;
15516;SDS011;7860;52.030;5.572;2023-07-30T03:45:10;20.39;;;4.86;;
15516;SDS011;7860;52.030;5.572;2023-07-30T03:46:10;16.18;;;5.03;;
15516;SDS011;7860;52.030;5.572;2023-07-30T03:47:10;16.62;;;4.60;;
15516;SDS011;7860;52.030;5.572;2023-07-30T03:48:10;17.82;;;5.17;;
15516;SDS011;7860;52.030;5.572;2023-07-30T03:49:10;13.58;;;4.90;;
15516;SDS011;7860;52.030;5.572;2023-07-30T03:50:10;16.24;;;5.61;;
15516;SDS011;7860;52.030;5.572;2023-07-30T03:51:11;14.57;;;4.78;;
15516;SDS011;7860;52.030;5.572;2023-07-30T03:52:11;17.37;;;5.00;;
15516;SDS011;7860;52.030;5.572;2023-07-30T03:53:11;17.50;;;4.98;;
15516;SDS011;7860;52.030;5.572;2023-07-30T03:54:11;16.14;;;5.32;;
15516;SDS011;7860;52.030;5.572;2023-07-30T03:55:11;18.94;;;5.43;;
15516;SDS011;7860;52.030;5.572;2023-07-30T03:56:11;18.25;;;4.97;;
15516;SDS011;7860;52.030;5.572;2023-07-30T03:57:11;18.48;;;5.39;;
15516;SDS011;7860;52.030;5.572;2023-07-30T03:58:11;14.68;;;5.07;;
15516;SDS011;7860;52.030;5.572;2023-07-30T03:59:11;19.31;;;5.23;;
15516;SDS011;7860;52.030;5.572;2023-07-30T04:00:11;17.71;;;5.91;;
15516;SDS011;7860;52.030;5.572;2023-07-30T04:01:11;18.48;;;5.52;;
15516;SDS011;7860;52.030;5.572;2023-07-30T04:02:11;17.96;;;5.61;;
15516;SDS011;7860;52.030;5.572;2023-07-30T04:03:11;18.60;;;5.18;;
15516;SDS011;7860;52.030;5.572;2023-07-30T04:04:11;19.43;;;5.69;;
15516;SDS011;7860;52.030;5.572;2023-07-30T04:05:12;16.36;;;5.48;;
15516;SDS011;7860;52.030;5.572;2023-07-30T04:06:12;19.26;;;5.47;;
15516;SDS011;7860;52.030;5.572;2023-07-30T04:07:12;22.00;;;5.40;;
15516;SDS011;7860;52.030;5.572;2023-07-30T04:08:12;19.66;;;5.51;;
15516;SDS011;7860;52.030;5.572;2023-07-30T04:09:12;15.28;;;5.31;;
15516;SDS011;7860;52.030;5.572;2023-07-30T04:10:13;20.93;;;6.47;;
15516;SDS011;7860;52.030;5.572;2023-07-30T04:11:13;19.54;;;5.64;;
15516;SDS011;7860;52.030;5.572;2023-07-30T04:12:13;19.92;;;5.65;;
15516;SDS011;7860;52.030;5.572;2023-07-30T04:13:13;20.78;;;5.50;;
15516;SDS011;7860;52.030;5.572;2023-07-30T04:14:13;20.48;;;5.91;;
15516;SDS011;7860;52.030;5.572;2023-07-30T04:15:14;20.43;;;5.50;;
15516;SDS011;7860;52.030;5.572;2023-07-30T04:16:13;21.32;;;6.02;;
15516;SDS011;7860;52.030;5.572;2023-07-30T04:17:13;20.31;;;5.86;;
15516;SDS011;7860;52.030;5.572;2023-07-30T04:18:13;18.37;;;5.60;;
15516;SDS011;7860;52.030;5.572;2023-07-30T04:19:14;16.23;;;5.85;;
15516;SDS011;7860;52.030;5.572;2023-07-30T04:20:14;19.46;;;5.64;;
15516;SDS011;7860;52.030;5.572;2023-07-30T04:21:14;17.11;;;6.03;;
15516;SDS011;7860;52.030;5.572;2023-07-30T04:22:14;21.42;;;5.71;;
15516;SDS011;7860;52.030;5.572;2023-07-30T04:23:14;22.59;;;6.10;;
15516;SDS011;7860;52.030;5.572;2023-07-30T04:24:14;16.99;;;5.43;;
15516;SDS011;7860;52.030;5.572;2023-07-30T04:25:14;18.60;;;5.58;;
15516;SDS011;7860;52.030;5.572;2023-07-30T04:26:14;18.96;;;6.35;;
15516;SDS011;7860;52.030;5.572;2023-07-30T04:27:15;21.30;;;5.69;;
15516;SDS011;7860;52.030;5.572;2023-07-30T04:28:15;20.62;;;5.77;;
15516;SDS011;7860;52.030;5.572;2023-07-30T04:29:16;22.83;;;5.78;;
15516;SDS011;7860;52.030;5.572;2023-07-30T04:30:16;21.65;;;5.75;;
15516;SDS011;7860;52.030;5.572;2023-07-30T04:31:16;19.36;;;5.88;;
15516;SDS011;7860;52.030;5.572;2023-07-30T04:32:16;23.16;;;5.88;;
15516;SDS011;7860;52.030;5.572;2023-07-30T04:33:16;20.53;;;5.70;;
15516;SDS011;7860;52.030;5.572;2023-07-30T04:34:16;24.83;;;6.30;;
15516;SDS011;7860;52.030;5.572;2023-07-30T04:35:16;18.33;;;5.52;;
15516;SDS011;7860;52.030;5.572;2023-07-30T04:36:16;20.26;;;5.76;;
15516;SDS011;7860;52.030;5.572;2023-07-30T04:37:16;17.80;;;5.79;;
15516;SDS011;7860;52.030;5.572;2023-07-30T04:38:16;21.82;;;6.12;;
15516;SDS011;7860;52.030;5.572;2023-07-30T04:39:16;19.88;;;6.50;;
15516;SDS011;7860;52.030;5.572;2023-07-30T04:40:18;25.78;;;6.40;;
15516;SDS011;7860;52.030;5.572;2023-07-30T04:41:17;19.51;;;6.14;;
15516;SDS011;7860;52.030;5.572;2023-07-30T04:42:17;18.09;;;6.08;;
15516;SDS011;7860;52.030;5.572;2023-07-30T04:43:17;21.91;;;6.36;;
15516;SDS011;7860;52.030;5.572;2023-07-30T04:44:17;20.10;;;6.39;;
15516;SDS011;7860;52.030;5.572;2023-07-30T04:45:17;19.47;;;6.10;;
15516;SDS011;7860;52.030;5.572;2023-07-30T04:46:17;21.80;;;5.94;;
15516;SDS011;7860;52.030;5.572;2023-07-30T04:47:18;22.71;;;6.41;;
15516;SDS011;7860;52.030;5.572;2023-07-30T04:48:18;20.97;;;6.02;;
15516;SDS011;7860;52.030;5.572;2023-07-30T04:49:19;18.49;;;6.38;;
15516;SDS011;7860;52.030;5.572;2023-07-30T04:50:19;17.81;;;6.14;;
15516;SDS011;7860;52.030;5.572;2023-07-30T04:51:19;18.98;;;5.79;;
15516;SDS011;7860;52.030;5.572;2023-07-30T04:52:19;19.80;;;6.13;;
15516;SDS011;7860;52.030;5.572;2023-07-30T04:53:19;21.81;;;7.05;;
15516;SDS011;7860;52.030;5.572;2023-07-30T04:54:19;22.37;;;6.66;;
15516;SDS011;7860;52.030;5.572;2023-07-30T04:55:19;20.43;;;6.18;;
15516;SDS011;7860;52.030;5.572;2023-07-30T04:56:19;22.80;;;6.58;;
15516;SDS011;7860;52.030;5.572;2023-07-30T04:57:19;19.02;;;6.40;;
15516;SDS011;7860;52.030;5.572;2023-07-30T04:58:20;22.56;;;6.51;;
15516;SDS011;7860;52.030;5.572;2023-07-30T04:59:20;25.45;;;5.96;;
15516;SDS011;7860;52.030;5.572;2023-07-30T05:00:20;20.92;;;6.06;;
15516;SDS011;7860;52.030;5.572;2023-07-30T05:01:20;18.93;;;6.49;;
15516;SDS011;7860;52.030;5.572;2023-07-30T05:02:20;20.74;;;6.23;;
15516;SDS011;7860;52.030;5.572;2023-07-30T05:03:20;18.33;;;5.87;;
15516;SDS011;7860;52.030;5.572;2023-07-30T05:04:20;21.11;;;6.18;;
15516;SDS011;7860;52.030;5.572;2023-07-30T05:05:21;22.58;;;5.88;;
15516;SDS011;7860;52.030;5.572;2023-07-30T05:06:22;22.14;;;6.50;;
15516;SDS011;7860;52.030;5.572;2023-07-30T05:07:22;20.77;;;6.01;;
15516;SDS011;7860;52.030;5.572;2023-07-30T05:08:22;18.53;;;5.72;;
15516;SDS011;7860;52.030;5.572;2023-07-30T05:09:22;18.60;;;6.16;;
15516;SDS011;7860;52.030;5.572;2023-07-30T05:10:22;19.87;;;6.23;;
15516;SDS011;7860;52.030;5.572;2023-07-30T05:11:22;19.65;;;6.04;;
15516;SDS011;7860;52.030;5.572;2023-07-30T05:12:22;21.33;;;5.93;;
15516;SDS011;7860;52.030;5.572;2023-07-30T05:13:22;16.86;;;6.24;;
15516;SDS011;7860;52.030;5.572;2023-07-30T05:14:22;17.61;;;5.95;;
15516;SDS011;7860;52.030;5.572;2023-07-30T05:15:22;16.11;;;5.99;;
15516;SDS011;7860;52.030;5.572;2023-07-30T05:16:22;17.40;;;5.63;;
15516;SDS011;7860;52.030;5.572;2023-07-30T05:17:22;19.50;;;6.29;;
15516;SDS011;7860;52.030;5.572;2023-07-30T05:18:22;20.66;;;6.16;;
15516;SDS011;7860;52.030;5.572;2023-07-30T05:19:22;19.36;;;5.95;;
15516;SDS011;7860;52.030;5.572;2023-07-30T05:20:22;22.26;;;5.97;;
15516;SDS011;7860;52.030;5.572;2023-07-30T05:21:22;18.26;;;5.86;;
15516;SDS011;7860;52.030;5.572;2023-07-30T05:22:23;20.32;;;6.30;;
15516;SDS011;7860;52.030;5.572;2023-07-30T05:23:23;20.48;;;5.99;;
15516;SDS011;7860;52.030;5.572;2023-07-30T05:24:23;20.00;;;6.19;;
15516;SDS011;7860;52.030;5.572;2023-07-30T05:25:23;18.59;;;6.07;;
15516;SDS011;7860;52.030;5.572;2023-07-30T05:26:23;20.13;;;5.95;;
15516;SDS011;7860;52.030;5.572;2023-07-30T05:27:23;19.41;;;6.31;;
15516;SDS011;7860;52.030;5.572;2023-07-30T05:28:23;18.42;;;5.84;;
15516;SDS011;7860;52.030;5.572;2023-07-30T05:29:23;17.45;;;5.86;;
15516;SDS011;7860;52.030;5.572;2023-07-30T05:30:23;18.14;;;5.45;;
15516;SDS011;7860;52.030;5.572;2023-07-30T05:31:23;15.53;;;5.35;;
15516;SDS011;7860;52.030;5.572;2023-07-30T05:32:23;22.55;;;6.29;;
15516;SDS011;7860;52.030;5.572;2023-07-30T05:33:23;17.75;;;6.57;;
15516;SDS011;7860;52.030;5.572;2023-07-30T05:34:23;18.82;;;6.29;;
15516;SDS011;7860;52.030;5.572;2023-07-30T05:35:24;24.19;;;6.54;;
15516;SDS011;7860;52.030;5.572;2023-07-30T05:36:24;20.02;;;6.09;;
15516;SDS011;7860;52.030;5.572;2023-07-30T05:37:24;19.36;;;5.84;;
15516;SDS011;7860;52.030;5.572;2023-07-30T05:38:24;20.19;;;6.43;;
15516;SDS011;7860;52.030;5.572;2023-07-30T05:39:24;24.34;;;6.55;;
15516;SDS011;7860;52.030;5.572;2023-07-30T05:40:24;20.93;;;6.26;;
15516;SDS011;7860;52.030;5.572;2023-07-30T05:41:24;22.72;;;6.06;;
15516;SDS011;7860;52.030;5.572;2023-07-30T05:42:24;15.93;;;5.75;;
15516;SDS011;7860;52.030;5.572;2023-07-30T05:43:24;22.28;;;5.74;;
15516;SDS011;7860;52.030;5.572;2023-07-30T05:44:24;20.91;;;6.10;;
15516;SDS011;7860;52.030;5.572;2023-07-30T05:45:24;20.86;;;6.15;;
15516;SDS011;7860;52.030;5.572;2023-07-30T05:46:24;22.11;;;6.42;;
15516;SDS011;7860;52.030;5.572;2023-07-30T05:47:24;23.04;;;6.60;;
15516;SDS011;7860;52.030;5.572;2023-07-30T05:48:24;22.49;;;6.99;;
15516;SDS011;7860;52.030;5.572;2023-07-30T05:49:25;19.17;;;6.63;;
15516;SDS011;7860;52.030;5.572;2023-07-30T05:50:25;19.25;;;6.34;;
15516;SDS011;7860;52.030;5.572;2023-07-30T05:51:25;20.87;;;7.14;;
15516;SDS011;7860;52.030;5.572;2023-07-30T05:52:26;21.06;;;6.56;;
15516;SDS011;7860;52.030;5.572;2023-07-30T05:53:26;21.33;;;7.00;;
15516;SDS011;7860;52.030;5.572;2023-07-30T05:54:26;20.11;;;6.09;;
15516;SDS011;7860;52.030;5.572;2023-07-30T05:55:26;20.36;;;6.51;;
15516;SDS011;7860;52.030;5.572;2023-07-30T05:56:26;22.50;;;7.30;;
15516;SDS011;7860;52.030;5.572;2023-07-30T05:57:26;19.10;;;6.29;;
15516;SDS011;7860;52.030;5.572;2023-07-30T05:58:26;18.11;;;6.50;;
15516;SDS011;7860;52.030;5.572;2023-07-30T05:59:27;21.40;;;6.28;;
15516;SDS011;7860;52.030;5.572;2023-07-30T06:00:27;20.49;;;6.84;;
15516;SDS011;7860;52.030;5.572;2023-07-30T06:01:27;21.48;;;6.58;;
15516;SDS011;7860;52.030;5.572;2023-07-30T06:02:28;17.65;;;6.30;;
15516;SDS011;7860;52.030;5.572;2023-07-30T06:03:28;19.98;;;6.58;;
15516;SDS011;7860;52.030;5.572;2023-07-30T06:04:28;23.55;;;7.46;;